Time;durP1;ratioP1;P1;durP2;ratioP2;P2;SDS_P1;SDS_P2;PMS_P1;PMS_P2;Temp;Humidity;BMP_temperature;BMP_pressure;BME280_temperature;BME280_humidity;BME280_pressure;Samples;Min_cycle;Max_cycle;Signal;HPM_P1;HPM_P2
2022/04/05 00:01:30;;;;;;;13.43;2.28;;;;;;;;;;5054404;28;20060;-63
2022/04/05 00:03:56;;;;;;;13.27;2.28;;;;;;;;;;5054222;28;20041;-63
2022/04/05 00:06:22;;;;;;;12.43;1.90;;;;;;;;;;5034814;28;20236;-63
2022/04/05 00:08:49;;;;;;;10.77;2.50;;;;;;;;;;5049118;28;20045;-63
2022/04/05 00:11:15;;;;;;;11.30;2.42;;;;;;;;;;5052623;28;20083;-63
2022/04/05 00:13:41;;;;;;;16.70;2.78;;;;;;;;;;5066925;28;20488;-63
2022/04/05 00:16:07;;;;;;;19.55;2.38;;;;;;;;;;5072938;28;20041;-63
2022/04/05 00:18:33;;;;;;;18.67;3.17;;;;;;;;;;5031888;28;20045;-63
2022/04/05 00:20:59;;;;;;;10.00;2.05;;;;;;;;;;5053451;28;20037;-63
2022/04/05 00:23:26;;;;;;;11.18;2.08;;;;;;;;;;5035498;28;20440;-63
2022/04/05 00:25:52;;;;;;;14.00;2.47;;;;;;;;;;5035779;28;20516;-63
2022/04/05 00:28:18;;;;;;;13.70;2.08;;;;;;;;;;5053189;28;20401;-63
2022/04/05 00:30:44;;;;;;;17.17;2.20;;;;;;;;;;5035399;28;20032;-63
2022/04/05 00:33:10;;;;;;;13.90;2.05;;;;;;;;;;5052665;28;20037;-64
2022/04/05 00:35:36;;;;;;;16.27;1.80;;;;;;;;;;5068763;28;20685;-63
2022/04/05 00:38:03;;;;;;;20.48;2.88;;;;;;;;;;5035435;28;20040;-63
2022/04/05 00:40:30;;;;;;;13.55;2.80;;;;;;;;;;5052850;28;20496;-63
2022/04/05 00:42:57;;;;;;;12.32;2.20;;;;;;;;;;5052957;28;20529;-63
2022/04/05 00:45:23;;;;;;;9.55;1.50;;;;;;;;;;5035109;28;20048;-63
2022/04/05 00:47:51;;;;;;;11.25;2.00;;;;;;;;;;5052377;28;20125;-63
2022/04/05 00:50:19;;;;;;;13.00;1.95;;;;;;;;;;5052754;28;20052;-63
2022/04/05 00:52:45;;;;;;;13.55;2.13;;;;;;;;;;5053296;28;20539;-63
2022/04/05 00:55:12;;;;;;;12.27;2.13;;;;;;;;;;5066117;28;20041;-64
2022/04/05 00:57:39;;;;;;;16.17;2.65;;;;;;;;;;5053266;28;20045;-63
2022/04/05 01:00:07;;;;;;;16.77;2.03;;;;;;;;;;5066655;28;20080;-63
2022/04/05 01:02:37;;;;;;;11.50;1.88;;;;;;;;;;5052287;28;20041;-63
2022/04/05 01:05:03;;;;;;;16.48;2.72;;;;;;;;;;5034580;28;20077;-63
2022/04/05 01:07:31;;;;;;;13.95;1.98;;;;;;;;;;5052551;28;20098;-63
2022/04/05 01:09:57;;;;;;;21.40;2.63;;;;;;;;;;5052215;28;20080;-64
2022/04/05 01:12:24;;;;;;;16.60;2.22;;;;;;;;;;5034077;28;20097;-63
2022/04/05 01:14:51;;;;;;;14.13;2.25;;;;;;;;;;5028614;28;20061;-63
2022/04/05 01:17:17;;;;;;;14.68;2.63;;;;;;;;;;5049199;28;20115;-63
2022/04/05 01:19:43;;;;;;;16.27;2.83;;;;;;;;;;5051357;28;20037;-63
2022/04/05 01:22:10;;;;;;;21.52;3.03;;;;;;;;;;5049165;28;20086;-63
2022/04/05 01:24:36;;;;;;;15.18;2.83;;;;;;;;;;5052075;28;20052;-63
2022/04/05 01:27:04;;;;;;;18.92;2.40;;;;;;;;;;5052741;28;20033;-63
2022/04/05 01:29:31;;;;;;;26.20;3.85;;;;;;;;;;5033920;28;20060;-63
2022/04/05 01:31:59;;;;;;;18.20;3.20;;;;;;;;;;5052592;28;20056;-63
2022/04/05 01:34:26;;;;;;;15.85;2.45;;;;;;;;;;5047655;28;20093;-63
2022/04/05 01:36:54;;;;;;;15.88;2.50;;;;;;;;;;5013862;28;20469;-63
2022/04/05 01:39:21;;;;;;;18.65;2.67;;;;;;;;;;5029164;28;20037;-63
2022/04/05 01:41:51;;;;;;;23.98;4.10;;;;;;;;;;5032545;28;20393;-63
2022/04/05 01:44:17;;;;;;;17.50;3.83;;;;;;;;;;5031552;28;20405;-63
2022/04/05 01:46:43;;;;;;;17.85;3.13;;;;;;;;;;5032313;28;20045;-63
2022/04/05 01:49:13;;;;;;;27.85;3.20;;;;;;;;;;5032613;28;20124;-63
2022/04/05 01:51:39;;;;;;;16.50;3.63;;;;;;;;;;5031270;28;20476;-63
2022/04/05 01:54:06;;;;;;;23.35;4.05;;;;;;;;;;5031797;28;20063;-63
2022/04/05 01:56:32;;;;;;;23.60;4.28;;;;;;;;;;5030446;28;20460;-63
2022/04/05 01:58:59;;;;;;;20.25;3.30;;;;;;;;;;5031673;28;20049;-63
2022/04/05 02:01:25;;;;;;;15.10;3.03;;;;;;;;;;5032443;28;20040;-63
2022/04/05 02:03:52;;;;;;;25.17;5.60;;;;;;;;;;5030451;28;20093;-63
2022/04/05 02:06:19;;;;;;;18.98;3.30;;;;;;;;;;5029965;28;20037;-63
2022/04/05 02:08:45;;;;;;;24.90;3.83;;;;;;;;;;5031531;28;20401;-63
2022/04/05 02:11:11;;;;;;;23.48;3.67;;;;;;;;;;5030943;28;20083;-63
2022/04/05 02:13:37;;;;;;;20.27;3.70;;;;;;;;;;5031240;28;20378;-63
2022/04/05 02:16:04;;;;;;;21.98;3.17;;;;;;;;;;5029621;28;20038;-63
2022/04/05 02:18:30;;;;;;;19.23;3.70;;;;;;;;;;5013730;28;20034;-63
2022/04/05 02:20:56;;;;;;;19.92;3.33;;;;;;;;;;5029608;28;20041;-63
2022/04/05 02:23:23;;;;;;;17.75;3.28;;;;;;;;;;5027497;28;20055;-63
2022/04/05 02:25:49;;;;;;;21.75;3.05;;;;;;;;;;5025941;28;20190;-63
2022/04/05 02:28:15;;;;;;;17.48;3.08;;;;;;;;;;5027687;28;20489;-63
2022/04/05 02:30:41;;;;;;;27.38;3.72;;;;;;;;;;5021048;28;20041;-63
2022/04/05 02:33:08;;;;;;;28.85;3.35;;;;;;;;;;5030460;28;20175;-63
2022/04/05 02:35:34;;;;;;;23.63;2.80;;;;;;;;;;5029787;28;20461;-63
2022/04/05 02:38:01;;;;;;;20.80;2.88;;;;;;;;;;5031369;28;20060;-63
2022/04/05 02:40:27;;;;;;;24.65;3.13;;;;;;;;;;5030027;28;20045;-63
2022/04/05 02:42:54;;;;;;;27.35;3.20;;;;;;;;;;5031288;28;20076;-63
2022/04/05 02:45:20;;;;;;;24.10;3.00;;;;;;;;;;5031387;28;20437;-63
2022/04/05 02:47:46;;;;;;;19.80;3.75;;;;;;;;;;5030639;28;20124;-63
2022/04/05 02:50:17;;;;;;;18.98;2.88;;;;;;;;;;5029805;28;20045;-63
2022/04/05 02:52:45;;;;;;;22.02;2.70;;;;;;;;;;5029798;28;20448;-63
2022/04/05 02:55:11;;;;;;;20.40;3.05;;;;;;;;;;5029377;28;20103;-63
2022/04/05 02:57:38;;;;;;;21.75;2.95;;;;;;;;;;5031014;28;20144;-63
2022/04/05 03:00:07;;;;;;;27.83;3.65;;;;;;;;;;5030799;28;20499;-63
2022/04/05 03:02:35;;;;;;;25.08;3.85;;;;;;;;;;5029285;28;20088;-63
2022/04/05 03:05:01;;;;;;;28.58;3.60;;;;;;;;;;5031480;28;20037;-63
2022/04/05 03:07:28;;;;;;;27.13;3.60;;;;;;;;;;5031148;28;20099;-63
2022/04/05 03:09:54;;;;;;;18.33;3.53;;;;;;;;;;5030392;28;20129;-63
2022/04/05 03:12:20;;;;;;;39.40;3.45;;;;;;;;;;5030635;28;20037;-63
2022/04/05 03:14:46;;;;;;;25.58;4.88;;;;;;;;;;5031121;28;20350;-63
2022/04/05 03:17:13;;;;;;;25.42;3.53;;;;;;;;;;5030368;28;20090;-63
2022/04/05 03:19:39;;;;;;;16.20;2.70;;;;;;;;;;5031268;28;20049;-62
2022/04/05 03:22:05;;;;;;;29.83;4.25;;;;;;;;;;5030032;28;20163;-63
2022/04/05 03:24:32;;;;;;;24.90;4.63;;;;;;;;;;5027001;28;20056;-63
2022/04/05 03:26:58;;;;;;;22.00;3.88;;;;;;;;;;5030901;28;20445;-63
2022/04/05 03:29:25;;;;;;;22.05;3.22;;;;;;;;;;5029866;28;20397;-63
2022/04/05 03:31:51;;;;;;;30.85;5.35;;;;;;;;;;5029821;28;20090;-63
2022/04/05 03:34:17;;;;;;;20.25;3.35;;;;;;;;;;5031487;28;20099;-63
2022/04/05 03:36:43;;;;;;;25.63;4.13;;;;;;;;;;5047209;28;20049;-62
2022/04/05 03:39:10;;;;;;;28.80;3.90;;;;;;;;;;5042692;28;20041;-63
2022/04/05 03:41:37;;;;;;;25.42;4.38;;;;;;;;;;5046591;28;20126;-63
2022/04/05 03:44:03;;;;;;;20.90;3.97;;;;;;;;;;5049437;28;20080;-63
2022/04/05 03:46:30;;;;;;;18.55;3.30;;;;;;;;;;5050854;28;20049;-63
2022/04/05 03:48:56;;;;;;;18.52;3.40;;;;;;;;;;5032923;28;20048;-63
2022/04/05 03:51:22;;;;;;;35.72;4.10;;;;;;;;;;5049567;28;20601;-63
2022/04/05 03:53:48;;;;;;;26.40;3.42;;;;;;;;;;5050207;28;20499;-63
2022/04/05 03:56:14;;;;;;;29.92;4.30;;;;;;;;;;5032635;28;20479;-62
2022/04/05 03:58:40;;;;;;;23.58;4.00;;;;;;;;;;5049390;28;20491;-63
2022/04/05 04:01:07;;;;;;;20.92;4.45;;;;;;;;;;5032217;28;20546;-63
2022/04/05 04:03:33;;;;;;;32.20;4.03;;;;;;;;;;5064091;28;20480;-63
2022/04/05 04:06:00;;;;;;;20.20;3.25;;;;;;;;;;5049598;28;20382;-63
2022/04/05 04:08:26;;;;;;;25.52;3.80;;;;;;;;;;5050422;28;20131;-63
2022/04/05 04:10:53;;;;;;;19.77;3.58;;;;;;;;;;5050083;28;20037;-63
2022/04/05 04:13:20;;;;;;;22.27;3.92;;;;;;;;;;5064887;28;20048;-63
2022/04/05 04:15:46;;;;;;;21.75;4.25;;;;;;;;;;5049692;28;20048;-63
2022/04/05 04:18:12;;;;;;;20.73;3.45;;;;;;;;;;5047160;28;20044;-63
2022/04/05 04:20:42;;;;;;;24.17;3.75;;;;;;;;;;5053674;28;20055;-63
2022/04/05 04:23:09;;;;;;;27.60;3.67;;;;;;;;;;5069094;28;20065;-63
2022/04/05 04:25:37;;;;;;;24.70;3.50;;;;;;;;;;5051448;28;20045;-63
2022/04/05 04:28:05;;;;;;;20.40;4.70;;;;;;;;;;5054073;28;20089;-63
2022/04/05 04:30:32;;;;;;;27.27;3.90;;;;;;;;;;5053351;28;20082;-63
2022/04/05 04:32:58;;;;;;;22.17;4.13;;;;;;;;;;5052774;28;20040;-63
2022/04/05 04:35:24;;;;;;;24.23;3.92;;;;;;;;;;5053174;28;20084;-62
2022/04/05 04:37:52;;;;;;;27.27;4.40;;;;;;;;;;5053941;28;20049;-63
2022/04/05 04:40:18;;;;;;;21.77;4.10;;;;;;;;;;5052332;28;20045;-63
2022/04/05 04:42:45;;;;;;;30.20;4.63;;;;;;;;;;5050498;28;20090;-63
2022/04/05 04:45:12;;;;;;;32.08;5.68;;;;;;;;;;5053058;28;20423;-63
2022/04/05 04:47:38;;;;;;;24.45;5.32;;;;;;;;;;5053057;28;20029;-63
2022/04/05 04:50:05;;;;;;;24.67;3.97;;;;;;;;;;5051025;28;20114;-63
2022/04/05 04:52:31;;;;;;;26.55;4.93;;;;;;;;;;5033111;28;20041;-63
2022/04/05 04:54:57;;;;;;;22.45;3.67;;;;;;;;;;5065790;28;20045;-63
2022/04/05 04:57:25;;;;;;;22.30;4.07;;;;;;;;;;5052521;28;20139;-63
2022/04/05 04:59:51;;;;;;;16.48;3.03;;;;;;;;;;5052740;28;20045;-63
2022/04/05 05:02:17;;;;;;;18.98;4.03;;;;;;;;;;5053625;28;20079;-62
2022/04/05 05:04:43;;;;;;;18.70;3.75;;;;;;;;;;5052475;28;20041;-63
2022/04/05 05:07:10;;;;;;;22.42;3.22;;;;;;;;;;5069402;28;20045;-63
2022/04/05 05:09:36;;;;;;;19.20;3.15;;;;;;;;;;5050734;28;20048;-63
2022/04/05 05:12:02;;;;;;;15.32;3.00;;;;;;;;;;5067334;28;20041;-63
2022/04/05 05:14:30;;;;;;;24.65;3.92;;;;;;;;;;5069168;28;20094;-63
2022/04/05 05:16:56;;;;;;;22.88;4.05;;;;;;;;;;5051612;28;20053;-63
2022/04/05 05:19:22;;;;;;;28.45;3.92;;;;;;;;;;5052105;28;20582;-63
2022/04/05 05:21:48;;;;;;;23.27;3.58;;;;;;;;;;5052629;28;20049;-63
2022/04/05 05:24:15;;;;;;;19.05;3.55;;;;;;;;;;5052152;28;20488;-63
2022/04/05 05:26:41;;;;;;;15.88;2.70;;;;;;;;;;5051244;28;20459;-63
2022/04/05 05:29:07;;;;;;;24.08;3.90;;;;;;;;;;5035819;28;20045;-63
2022/04/05 05:31:33;;;;;;;21.38;3.30;;;;;;;;;;5051683;28;20041;-63
2022/04/05 05:33:59;;;;;;;11.82;3.30;;;;;;;;;;5051956;28;20056;-64
2022/04/05 05:36:25;;;;;;;21.98;3.35;;;;;;;;;;5052797;28;20081;-63
2022/04/05 05:38:51;;;;;;;11.02;2.58;;;;;;;;;;5039277;28;20056;-63
2022/04/05 05:41:18;;;;;;;18.92;2.70;;;;;;;;;;5032903;28;20120;-63
2022/04/05 05:43:45;;;;;;;12.40;3.15;;;;;;;;;;5014235;28;20037;-63
2022/04/05 05:46:13;;;;;;;16.77;3.78;;;;;;;;;;5032491;28;20509;-63
2022/04/05 05:48:39;;;;;;;22.08;2.92;;;;;;;;;;5033310;28;20049;-63
2022/04/05 05:51:06;;;;;;;19.10;3.20;;;;;;;;;;5035489;28;20037;-63
2022/04/05 05:53:32;;;;;;;15.07;2.80;;;;;;;;;;5048074;28;20099;-63
2022/04/05 05:55:59;;;;;;;14.18;2.92;;;;;;;;;;5035499;28;21615;-63
2022/04/05 05:58:25;;;;;;;25.10;2.97;;;;;;;;;;5039609;28;20072;-63
2022/04/05 06:00:51;;;;;;;14.93;3.17;;;;;;;;;;5039699;28;20109;-63
2022/04/05 06:03:18;;;;;;;18.23;2.50;;;;;;;;;;5026943;28;20045;-63
2022/04/05 06:05:45;;;;;;;18.88;4.07;;;;;;;;;;5040601;28;20048;-63
2022/04/05 06:08:13;;;;;;;19.98;3.47;;;;;;;;;;5042715;28;20037;-63
2022/04/05 06:10:40;;;;;;;25.92;4.63;;;;;;;;;;5042623;28;20496;-63
2022/04/05 06:13:06;;;;;;;13.52;2.08;;;;;;;;;;5043568;28;20383;-63
2022/04/05 06:15:32;;;;;;;22.75;2.53;;;;;;;;;;5022081;28;20102;-63
2022/04/05 06:17:58;;;;;;;13.23;2.05;;;;;;;;;;5040213;28;20497;-63
2022/04/05 06:20:25;;;;;;;18.58;2.55;;;;;;;;;;5043967;28;20067;-63
2022/04/05 06:22:52;;;;;;;17.33;3.40;;;;;;;;;;5038466;28;20079;-63
2022/04/05 06:25:19;;;;;;;18.60;2.95;;;;;;;;;;5042200;28;20203;-63
2022/04/05 06:27:46;;;;;;;11.55;2.58;;;;;;;;;;5042956;28;20040;-63
2022/04/05 06:30:12;;;;;;;17.17;2.35;;;;;;;;;;5041029;28;20116;-63
2022/04/05 06:32:38;;;;;;;12.38;2.42;;;;;;;;;;5043081;28;20500;-64
2022/04/05 06:35:06;;;;;;;14.18;2.20;;;;;;;;;;5034315;28;20046;-63
2022/04/05 06:37:33;;;;;;;13.20;2.30;;;;;;;;;;5032377;28;20432;-64
2022/04/05 06:39:59;;;;;;;14.60;1.70;;;;;;;;;;5032239;28;20053;-63
2022/04/05 06:42:25;;;;;;;24.38;3.42;;;;;;;;;;5018126;28;20045;-64
2022/04/05 06:44:53;;;;;;;12.55;2.70;;;;;;;;;;5031552;28;20048;-63
2022/04/05 06:47:19;;;;;;;17.65;2.30;;;;;;;;;;5030897;28;20567;-63
2022/04/05 06:49:45;;;;;;;10.70;2.35;;;;;;;;;;5032811;28;20038;-64
2022/04/05 06:52:12;;;;;;;11.70;2.70;;;;;;;;;;5047212;28;20041;-64
2022/04/05 06:54:38;;;;;;;13.93;2.35;;;;;;;;;;5050062;28;20045;-64
2022/04/05 06:57:04;;;;;;;8.25;1.95;;;;;;;;;;5050455;28;20120;-64
2022/04/05 06:59:30;;;;;;;10.85;2.75;;;;;;;;;;5051650;28;20059;-64
2022/04/05 07:01:56;;;;;;;6.82;1.58;;;;;;;;;;5050950;28;20033;-63
2022/04/05 07:04:23;;;;;;;9.73;2.17;;;;;;;;;;5051772;28;20080;-64
2022/04/05 07:06:49;;;;;;;7.10;1.50;;;;;;;;;;5052120;28;20052;-64
2022/04/05 07:09:15;;;;;;;12.00;2.17;;;;;;;;;;5051191;28;20041;-64
2022/04/05 07:11:41;;;;;;;11.05;1.85;;;;;;;;;;5052175;28;20033;-64
2022/04/05 07:14:08;;;;;;;15.00;2.30;;;;;;;;;;5051142;28;20506;-64
2022/04/05 07:16:34;;;;;;;10.70;2.28;;;;;;;;;;5034314;28;20056;-63
2022/04/05 07:19:00;;;;;;;15.05;2.67;;;;;;;;;;5051706;28;20037;-64
2022/04/05 07:21:27;;;;;;;16.30;3.55;;;;;;;;;;5050848;28;20041;-64
2022/04/05 07:23:53;;;;;;;12.95;2.17;;;;;;;;;;5051727;28;20119;-64
2022/04/05 07:26:21;;;;;;;10.15;1.83;;;;;;;;;;5033527;28;20049;-64
2022/04/05 07:28:48;;;;;;;13.15;2.00;;;;;;;;;;5051027;28;20122;-64
2022/04/05 07:31:15;;;;;;;11.82;2.38;;;;;;;;;;5051416;28;20041;-64
2022/04/05 07:33:41;;;;;;;11.63;2.20;;;;;;;;;;5051856;28;20119;-64
2022/04/05 07:36:07;;;;;;;12.05;1.70;;;;;;;;;;5050637;28;20549;-64
2022/04/05 07:38:33;;;;;;;14.55;2.47;;;;;;;;;;5051831;28;20040;-63
2022/04/05 07:41:00;;;;;;;18.23;2.50;;;;;;;;;;5051279;28;20071;-63
2022/04/05 07:43:27;;;;;;;12.63;2.00;;;;;;;;;;5050820;28;20079;-64
2022/04/05 07:45:54;;;;;;;19.60;2.50;;;;;;;;;;5033926;28;20041;-64
2022/04/05 07:48:21;;;;;;;14.00;2.22;;;;;;;;;;5051792;28;20080;-64
2022/04/05 07:50:48;;;;;;;11.32;2.78;;;;;;;;;;5050978;28;20049;-64
2022/04/05 07:53:15;;;;;;;18.45;2.47;;;;;;;;;;5035469;28;20457;-63
2022/04/05 07:55:41;;;;;;;12.20;2.40;;;;;;;;;;5037526;28;20631;-64
2022/04/05 07:58:07;;;;;;;13.75;2.30;;;;;;;;;;5054344;28;20123;-64
2022/04/05 08:00:33;;;;;;;17.40;2.35;;;;;;;;;;5037011;28;20052;-63
2022/04/05 08:02:59;;;;;;;8.98;2.10;;;;;;;;;;5067822;28;20437;-64
2022/04/05 08:05:27;;;;;;;8.35;1.63;;;;;;;;;;5052892;28;20527;-63
2022/04/05 08:07:54;;;;;;;10.05;1.77;;;;;;;;;;5050193;28;20083;-63
2022/04/05 08:10:20;;;;;;;9.43;1.58;;;;;;;;;;5035350;28;20448;-63
2022/04/05 08:12:47;;;;;;;8.50;1.83;;;;;;;;;;5053283;28;20041;-63
2022/04/05 08:15:15;;;;;;;13.25;1.98;;;;;;;;;;5053754;28;20060;-63
2022/04/05 08:17:41;;;;;;;7.13;1.40;;;;;;;;;;5042813;28;20085;-63
2022/04/05 08:20:08;;;;;;;6.75;1.65;;;;;;;;;;5043256;28;20048;-63
2022/04/05 08:22:34;;;;;;;11.35;1.67;;;;;;;;;;5057124;28;20511;-63
2022/04/05 08:25:00;;;;;;;6.07;1.30;;;;;;;;;;5041868;28;20084;-64
2022/04/05 08:27:26;;;;;;;10.23;1.83;;;;;;;;;;5044800;28;20104;-63
2022/04/05 08:29:53;;;;;;;10.35;2.20;;;;;;;;;;5045631;28;20541;-63
2022/04/05 08:32:19;;;;;;;6.32;1.50;;;;;;;;;;5038327;28;20052;-64
2022/04/05 08:34:45;;;;;;;9.27;1.80;;;;;;;;;;5044063;28;20049;-63
2022/04/05 08:37:12;;;;;;;10.70;2.20;;;;;;;;;;5038647;28;20505;-63
2022/04/05 08:39:39;;;;;;;8.05;2.20;;;;;;;;;;5027486;28;20116;-64
2022/04/05 08:42:06;;;;;;;8.10;1.85;;;;;;;;;;5044959;28;20036;-64
2022/04/05 08:44:32;;;;;;;8.60;1.92;;;;;;;;;;5055432;28;20057;-64
2022/04/05 08:47:01;;;;;;;10.13;2.30;;;;;;;;;;5044854;28;20032;-63
2022/04/05 08:49:28;;;;;;;7.88;2.03;;;;;;;;;;5041776;28;20052;-64
2022/04/05 08:51:55;;;;;;;5.35;1.55;;;;;;;;;;5042249;28;20044;-64
2022/04/05 08:54:21;;;;;;;5.28;1.33;;;;;;;;;;5060032;28;20111;-63
2022/04/05 08:56:47;;;;;;;9.35;2.38;;;;;;;;;;5043616;28;20069;-64
2022/04/05 08:59:14;;;;;;;10.82;2.00;;;;;;;;;;5057500;28;20042;-64
2022/04/05 09:01:41;;;;;;;9.18;1.90;;;;;;;;;;5044206;28;20107;-64
2022/04/05 09:04:07;;;;;;;7.65;1.98;;;;;;;;;;5024554;28;20512;-64
2022/04/05 09:06:36;;;;;;;8.20;2.30;;;;;;;;;;5041906;28;20224;-64
2022/04/05 09:09:03;;;;;;;7.40;2.40;;;;;;;;;;5042755;28;20045;-64
2022/04/05 09:11:29;;;;;;;8.10;2.85;;;;;;;;;;5026270;28;20155;-63
2022/04/05 09:13:58;;;;;;;11.70;5.05;;;;;;;;;;5041693;28;20500;-63
2022/04/05 09:16:30;;;;;;;8.93;4.35;;;;;;;;;;5059986;28;20124;-63
2022/04/05 09:18:56;;;;;;;12.80;5.15;;;;;;;;;;5055782;28;20400;-64
2022/04/05 09:21:22;;;;;;;15.45;6.00;;;;;;;;;;5052067;28;20094;-63
2022/04/05 09:23:52;;;;;;;9.80;5.15;;;;;;;;;;5052893;28;20041;-63
2022/04/05 09:26:18;;;;;;;9.68;5.32;;;;;;;;;;5052968;28;20037;-63
2022/04/05 09:28:47;;;;;;;12.50;4.88;;;;;;;;;;5051870;28;20099;-63
2022/04/05 09:31:14;;;;;;;10.52;5.28;;;;;;;;;;5034527;28;20127;-63
2022/04/05 09:33:41;;;;;;;11.48;4.25;;;;;;;;;;5052669;28;20113;-63
2022/04/05 09:36:11;;;;;;;5.57;2.00;;;;;;;;;;5051442;28;20045;-63
2022/04/05 09:38:37;;;;;;;7.47;2.15;;;;;;;;;;5068129;28;21609;-63
2022/04/05 09:41:18;;;;;;;10.48;2.50;;;;;;;;;;5052307;28;20124;-64
2022/04/05 09:43:52;;;;;;;6.38;2.22;;;;;;;;;;5066421;28;20041;-64
2022/04/05 09:46:19;;;;;;;5.40;2.10;;;;;;;;;;5052464;28;20460;-64
2022/04/05 09:48:46;;;;;;;3.28;1.70;;;;;;;;;;5067076;28;20063;-65
2022/04/05 09:51:14;;;;;;;4.07;1.45;;;;;;;;;;5062644;28;20038;-64
2022/04/05 09:53:41;;;;;;;5.10;1.73;;;;;;;;;;5049958;28;20455;-64
2022/04/05 09:56:09;;;;;;;5.93;1.60;;;;;;;;;;5048384;28;20029;-64
2022/04/05 09:58:35;;;;;;;3.15;1.40;;;;;;;;;;5058411;28;20064;-63
2022/04/05 10:01:06;;;;;;;2.88;1.20;;;;;;;;;;5046689;28;20047;-64
2022/04/05 10:03:33;;;;;;;6.57;1.40;;;;;;;;;;5046793;28;20053;-63
2022/04/05 10:06:00;;;;;;;6.40;1.30;;;;;;;;;;5049422;28;20550;-63
2022/04/05 10:08:27;;;;;;;4.47;1.30;;;;;;;;;;5031396;28;20037;-63
2022/04/05 10:10:54;;;;;;;4.72;1.30;;;;;;;;;;5048701;28;20392;-63
2022/04/05 10:13:20;;;;;;;5.20;1.60;;;;;;;;;;5031952;28;20095;-64
2022/04/05 10:15:48;;;;;;;4.85;1.98;;;;;;;;;;5060689;28;20179;-64
2022/04/05 10:18:17;;;;;;;4.95;1.50;;;;;;;;;;5048901;28;20507;-63
2022/04/05 10:20:43;;;;;;;3.17;1.35;;;;;;;;;;5048550;28;20064;-63
2022/04/05 10:23:09;;;;;;;2.58;1.33;;;;;;;;;;5065072;28;20110;-64
2022/04/05 10:25:36;;;;;;;4.68;1.80;;;;;;;;;;5031162;28;20057;-64
2022/04/05 10:28:02;;;;;;;7.82;1.70;;;;;;;;;;5049419;28;20044;-64
2022/04/05 10:30:33;;;;;;;4.80;1.40;;;;;;;;;;5049710;28;20048;-64
2022/04/05 10:32:59;;;;;;;3.40;1.40;;;;;;;;;;5045418;28;20041;-64
2022/04/05 10:35:26;;;;;;;4.97;1.70;;;;;;;;;;5044566;28;20045;-64
2022/04/05 10:38:09;;;;;;;4.47;1.15;;;;;;;;;;5048968;28;20060;-64
2022/04/05 10:40:36;;;;;;;4.32;1.73;;;;;;;;;;5049191;28;20139;-64
2022/04/05 10:43:14;;;;;;;5.65;1.65;;;;;;;;;;5048927;28;20048;-64
2022/04/05 10:45:43;;;;;;;5.18;1.40;;;;;;;;;;5047460;28;20158;-63
2022/04/05 10:48:17;;;;;;;3.47;1.40;;;;;;;;;;5049187;28;20514;-64
2022/04/05 10:50:46;;;;;;;5.13;1.05;;;;;;;;;;5030191;28;20057;-64
2022/04/05 10:53:14;;;;;;;2.80;1.30;;;;;;;;;;5046404;28;20520;-64
2022/04/05 10:55:59;;;;;;;4.07;1.65;;;;;;;;;;5028557;28;20051;-64
2022/04/05 10:58:25;;;;;;;3.53;1.45;;;;;;;;;;5047137;28;20199;-64
2022/04/05 11:00:51;;;;;;;2.88;1.63;;;;;;;;;;5044742;28;20111;-64
2022/04/05 11:03:18;;;;;;;3.20;1.58;;;;;;;;;;5048151;28;20041;-64
2022/04/05 11:05:44;;;;;;;5.40;1.75;;;;;;;;;;5063134;28;20144;-64
2022/04/05 11:08:11;;;;;;;5.47;1.92;;;;;;;;;;5061629;28;20048;-64
2022/04/05 11:10:37;;;;;;;3.88;1.98;;;;;;;;;;5028517;28;20491;-64
2022/04/05 11:13:05;;;;;;;3.15;1.85;;;;;;;;;;5012925;28;20076;-65
2022/04/05 11:15:42;;;;;;;2.78;1.52;;;;;;;;;;5047200;28;20037;-64
2022/04/05 11:18:09;;;;;;;3.92;1.77;;;;;;;;;;5045559;28;20120;-64
2022/04/05 11:20:38;;;;;;;3.47;1.88;;;;;;;;;;5014102;28;20091;-64
2022/04/05 11:23:04;;;;;;;3.72;1.80;;;;;;;;;;5046806;28;20055;-64
2022/04/05 11:25:30;;;;;;;3.80;1.88;;;;;;;;;;5046363;28;20040;-64
2022/04/05 11:28:09;;;;;;;3.88;2.17;;;;;;;;;;5048557;28;20120;-64
2022/04/05 11:30:42;;;;;;;3.58;2.15;;;;;;;;;;5063850;28;20582;-64
2022/04/05 11:33:09;;;;;;;4.20;2.17;;;;;;;;;;5049702;28;20120;-63
2022/04/05 11:35:37;;;;;;;3.42;1.90;;;;;;;;;;5033071;28;20064;-64
2022/04/05 11:38:03;;;;;;;4.75;1.88;;;;;;;;;;5053672;28;20400;-64
2022/04/05 11:40:30;;;;;;;4.03;2.00;;;;;;;;;;5054900;28;20049;-64
2022/04/05 11:42:59;;;;;;;4.90;2.05;;;;;;;;;;5036214;28;20045;-63
2022/04/05 11:45:26;;;;;;;5.13;2.53;;;;;;;;;;5036877;28;20049;-63
2022/04/05 11:47:54;;;;;;;5.07;2.40;;;;;;;;;;5054275;28;20377;-64
2022/04/05 11:50:21;;;;;;;4.82;2.88;;;;;;;;;;5036307;28;20048;-63
2022/04/05 11:52:47;;;;;;;4.97;3.15;;;;;;;;;;5050701;28;20374;-64
2022/04/05 11:58:02;;;;;;;5.90;2.60;;;;;;;;;;5054962;28;20128;-64
2022/04/05 12:00:28;;;;;;;5.88;2.92;;;;;;;;;;5067277;28;20056;-64
2022/04/05 12:03:02;;;;;;;4.53;3.00;;;;;;;;;;5052534;28;20056;-64
2022/04/05 12:05:47;;;;;;;5.82;3.03;;;;;;;;;;5054317;28;20562;-64
2022/04/05 12:08:14;;;;;;;5.70;3.38;;;;;;;;;;5051736;28;20365;-63
2022/04/05 12:10:41;;;;;;;5.05;3.17;;;;;;;;;;5053842;28;20055;-63
2022/04/05 12:13:07;;;;;;;7.30;3.67;;;;;;;;;;5054291;28;20124;-63
2022/04/05 12:15:34;;;;;;;7.75;4.03;;;;;;;;;;5054180;28;20545;-63
2022/04/05 12:18:17;;;;;;;7.30;4.68;;;;;;;;;;5068751;28;20053;-63
2022/04/05 12:20:54;;;;;;;7.70;4.60;;;;;;;;;;5053548;28;20407;-64
2022/04/05 12:23:21;;;;;;;7.38;4.88;;;;;;;;;;5053760;28;20500;-63
2022/04/05 12:26:05;;;;;;;10.70;5.45;;;;;;;;;;5052548;28;20046;-63
2022/04/05 12:28:31;;;;;;;8.45;4.30;;;;;;;;;;5052171;28;20468;-64
2022/04/05 12:31:04;;;;;;;7.78;4.72;;;;;;;;;;5052346;28;20037;-63
2022/04/05 12:33:30;;;;;;;6.05;3.45;;;;;;;;;;5053138;28;20041;-63
2022/04/05 12:35:57;;;;;;;6.32;3.53;;;;;;;;;;5035169;28;20045;-63
2022/04/05 12:38:23;;;;;;;11.07;4.32;;;;;;;;;;5069270;28;20057;-63
2022/04/05 12:40:49;;;;;;;14.52;4.22;;;;;;;;;;5049180;28;20049;-64
2022/04/05 12:43:16;;;;;;;9.40;4.72;;;;;;;;;;5048224;28;20048;-64
2022/04/05 12:45:43;;;;;;;14.30;4.95;;;;;;;;;;5048936;28;20044;-63
2022/04/05 12:48:11;;;;;;;14.30;5.80;;;;;;;;;;5047117;28;20037;-63
2022/04/05 12:50:42;;;;;;;18.88;6.90;;;;;;;;;;5039732;28;20081;-64
2022/04/05 12:53:08;;;;;;;16.75;7.53;;;;;;;;;;5049085;28;20041;-64
2022/04/05 12:55:34;;;;;;;20.08;8.20;;;;;;;;;;5053701;28;20045;-64
2022/04/05 12:58:00;;;;;;;26.83;9.93;;;;;;;;;;5053408;28;20037;-64
2022/04/05 13:00:30;;;;;;;25.23;9.30;;;;;;;;;;5053355;28;20052;-64
2022/04/05 13:02:59;;;;;;;24.92;9.30;;;;;;;;;;5053614;28;20572;-64
2022/04/05 13:08:13;;;;;;;25.38;8.68;;;;;;;;;;5053245;28;20037;-64
2022/04/05 13:10:46;;;;;;;36.35;10.30;;;;;;;;;;5053219;28;20037;-64
2022/04/05 13:13:15;;;;;;;25.63;10.23;;;;;;;;;;5052411;28;20120;-64
2022/04/05 13:15:42;;;;;;;25.75;10.88;;;;;;;;;;5053453;28;20438;-64
2022/04/05 13:18:08;;;;;;;26.58;9.52;;;;;;;;;;5068591;28;20048;-64
2022/04/05 13:20:34;;;;;;;29.77;11.35;;;;;;;;;;5052396;28;20136;-64
2022/04/05 13:23:01;;;;;;;36.67;12.70;;;;;;;;;;5035049;28;20045;-64
2022/04/05 13:25:33;;;;;;;28.77;9.73;;;;;;;;;;5068251;28;20083;-64
2022/04/05 13:28:00;;;;;;;31.35;10.93;;;;;;;;;;5034035;28;20052;-64
2022/04/05 13:30:27;;;;;;;30.77;9.68;;;;;;;;;;5066861;28;20082;-64
2022/04/05 13:33:04;;;;;;;30.00;10.32;;;;;;;;;;5068342;28;20087;-64
2022/04/05 13:35:30;;;;;;;23.52;8.95;;;;;;;;;;5033858;28;20408;-64
2022/04/05 13:37:56;;;;;;;29.70;10.63;;;;;;;;;;5052072;28;20511;-63
2022/04/05 13:40:22;;;;;;;31.40;10.00;;;;;;;;;;5052466;28;20123;-64
2022/04/05 13:42:49;;;;;;;33.25;10.48;;;;;;;;;;5048933;28;20128;-64
2022/04/05 13:45:15;;;;;;;32.95;9.77;;;;;;;;;;5062474;28;20105;-63
2022/04/05 13:47:42;;;;;;;28.65;10.25;;;;;;;;;;5049489;28;20059;-63
2022/04/05 13:50:08;;;;;;;27.48;10.05;;;;;;;;;;5013441;28;20067;-64
2022/04/05 13:52:35;;;;;;;27.73;9.02;;;;;;;;;;5050473;28;20053;-63
2022/04/05 13:55:01;;;;;;;20.42;8.50;;;;;;;;;;5062865;28;20067;-63
2022/04/05 13:57:27;;;;;;;27.90;9.40;;;;;;;;;;5062207;28;20118;-64
2022/04/05 13:59:53;;;;;;;22.48;8.75;;;;;;;;;;5031453;28;20049;-63
2022/04/05 14:02:19;;;;;;;24.13;8.10;;;;;;;;;;5062932;28;20036;-63
2022/04/05 14:04:45;;;;;;;26.38;8.95;;;;;;;;;;5049408;28;20094;-63
2022/04/05 14:07:14;;;;;;;29.40;8.82;;;;;;;;;;5049322;28;20124;-63
2022/04/05 14:09:40;;;;;;;30.17;9.85;;;;;;;;;;5031031;28;20049;-62
2022/04/05 14:12:07;;;;;;;26.90;8.52;;;;;;;;;;5049497;28;20045;-63
2022/04/05 14:14:33;;;;;;;24.00;9.27;;;;;;;;;;5049363;28;20123;-63
2022/04/05 14:17:00;;;;;;;22.33;7.38;;;;;;;;;;5049457;28;20037;-63
2022/04/05 14:19:26;;;;;;;28.52;9.73;;;;;;;;;;5028717;28;20049;-63
2022/04/05 14:21:53;;;;;;;25.23;8.27;;;;;;;;;;5047558;28;20059;-63
2022/04/05 14:24:19;;;;;;;30.30;9.15;;;;;;;;;;5044990;28;20049;-63
2022/04/05 14:26:46;;;;;;;23.23;8.32;;;;;;;;;;5042544;28;20052;-62
2022/04/05 14:29:13;;;;;;;33.22;8.93;;;;;;;;;;5038940;28;20048;-62
2022/04/05 14:31:41;;;;;;;32.28;9.10;;;;;;;;;;5050419;28;20045;-62
2022/04/05 14:34:07;;;;;;;26.73;9.15;;;;;;;;;;5033010;28;20061;-62
2022/04/05 14:36:33;;;;;;;24.92;9.57;;;;;;;;;;5026827;28;20048;-62
2022/04/05 14:39:01;;;;;;;25.75;10.52;;;;;;;;;;5030260;28;20078;-62